Airports

 

 

Airport Name Latest METAR Visual Conditions
Atlantic City Int. (ACY) KACY 081654Z 33014G22KT 10SM FEW042 22/11 A2953 RMK AO2 PK WND 35029/1632 SLP000 T02220106 VFR
Baltimore International Airport (BWI) KBWI 081654Z 27017KT 10SM BKN049 BKN090 BKN250 23/12 A2958 RMK AO2 SLP016 ACSL W-N T02330117 VFR
Washington National Airport (DCA) KDCA 081652Z 30015G21KT 10SM SCT050 SCT250 23/13 A2960 RMK AO2 SLP021 T02330128 VFR
Dulles International Airport (IAD) KIAD 081652Z 33009G18KT 10SM SCT045 SCT230 23/12 A2961 RMK AO2 SLP024 T02330117 VFR
Norfolk International Airport (ORF) KORF 081651Z 29005KT 10SM CLR 25/11 A2961 RMK AO2 SLP028 T02500111 VFR
Raleigh International Airport (RDU) KRDU 081651Z VRB03KT 10SM FEW055 FEW150 SCT250 26/12 A2976 RMK AO2 SLP072 T02560117 VFR
Richmond International Airport (RIC) KRIC 081654Z 27011KT 10SM BKN140 BKN170 BKN300 21/12 A2965 RMK AO2 SLP043 T02110117 VFR
Roanoke Regional Airport (ROA) KROA 081654Z 31008KT 10SM FEW037 BKN070 OVC085 20/12 A2978 RMK AO2 RAE42 SLP074 P0000 T02000122 VFR